createdAt,value
2023-05-17T00:00:31.305Z,9.50
2023-05-17T00:01:31.300Z,5.00
2023-05-17T00:02:31.371Z,6.00
2023-05-17T00:03:31.285Z,6.30
2023-05-17T00:04:31.344Z,5.30
2023-05-17T00:05:31.361Z,6.60
2023-05-17T00:06:31.265Z,4.70
2023-05-17T00:07:31.241Z,9.40
2023-05-17T00:08:31.229Z,6.20
2023-05-17T00:09:31.231Z,9.40
2023-05-17T00:10:31.211Z,6.60
2023-05-17T00:11:31.179Z,8.90
2023-05-17T00:12:31.184Z,6.60
2023-05-17T00:13:31.230Z,7.50
2023-05-17T00:14:31.162Z,8.50
2023-05-17T00:15:31.150Z,7.60
2023-05-17T00:16:31.130Z,6.10
2023-05-17T00:17:31.202Z,6.80
2023-05-17T00:18:31.245Z,5.00
2023-05-17T00:19:31.129Z,5.10
2023-05-17T00:20:31.133Z,7.50
2023-05-17T00:21:31.059Z,5.40
2023-05-17T00:22:31.077Z,5.70
2023-05-17T00:23:31.044Z,6.90
2023-05-17T00:24:31.058Z,6.60
2023-05-17T00:25:31.278Z,8.30
2023-05-17T00:26:31.027Z,9.00
2023-05-17T00:27:31.013Z,4.80
2023-05-17T00:28:31.006Z,7.80
2023-05-17T00:29:31.004Z,8.90
2023-05-17T00:30:30.976Z,8.00
2023-05-17T00:31:30.977Z,5.30
2023-05-17T00:32:31.029Z,5.40
2023-05-17T00:33:30.952Z,7.60
2023-05-17T00:34:30.973Z,9.50
2023-05-17T00:35:31.031Z,7.20
2023-05-17T00:36:30.939Z,8.90
2023-05-17T00:37:30.903Z,7.40
2023-05-17T00:38:30.969Z,5.50
2023-05-17T00:39:30.899Z,6.80
2023-05-17T00:40:30.962Z,7.20
2023-05-17T00:41:30.863Z,4.50
2023-05-17T00:42:30.854Z,5.50
2023-05-17T00:43:30.858Z,8.00
2023-05-17T00:44:30.849Z,8.80
2023-05-17T00:45:30.803Z,7.30
2023-05-17T00:46:30.804Z,4.90
2023-05-17T00:47:30.825Z,5.70
2023-05-17T00:48:31.041Z,4.70
2023-05-17T00:49:30.779Z,6.40
2023-05-17T00:50:30.774Z,5.00
2023-05-17T00:51:30.756Z,8.20
2023-05-17T00:52:30.729Z,5.00
2023-05-17T00:53:30.733Z,5.30
2023-05-17T00:54:30.718Z,5.90
2023-05-17T00:55:30.857Z,5.50
2023-05-17T00:56:30.717Z,6.80
2023-05-17T05:30:46.974Z,17.00
2023-05-17T05:31:46.494Z,18.50
2023-05-17T05:32:46.621Z,19.90
2023-05-17T05:33:46.515Z,31.00
2023-05-17T05:34:46.455Z,18.90
2023-05-17T05:35:46.454Z,22.20
2023-05-17T05:36:46.436Z,23.00
2023-05-17T05:37:46.464Z,27.40
2023-05-17T05:38:46.502Z,23.00
2023-05-17T05:39:46.444Z,23.70
2023-05-17T05:40:46.387Z,25.40
2023-05-17T05:41:46.397Z,24.70
2023-05-17T05:42:46.367Z,27.90
2023-05-17T05:43:46.358Z,28.90
2023-05-17T05:44:46.355Z,25.10
2023-05-17T05:45:46.338Z,26.80
2023-05-17T05:46:47.285Z,28.00
2023-05-17T05:47:46.427Z,27.70
2023-05-17T05:48:46.321Z,23.40
2023-05-17T05:49:46.308Z,24.20
2023-05-17T05:50:46.320Z,23.20
2023-05-17T05:51:46.309Z,26.30
2023-05-17T05:52:46.267Z,22.30
2023-05-17T05:53:46.265Z,22.50
2023-05-17T05:54:46.450Z,26.20
2023-05-17T05:55:46.274Z,24.20
2023-05-17T05:56:46.220Z,26.80
2023-05-17T05:57:46.215Z,24.80
2023-05-17T05:58:46.245Z,29.70
2023-05-17T05:59:46.188Z,26.40
2023-05-17T06:00:46.184Z,28.70
2023-05-17T06:01:46.180Z,27.60
2023-05-17T06:02:46.254Z,25.60
2023-05-17T06:03:46.155Z,27.40
2023-05-17T06:04:46.205Z,27.40
2023-05-17T06:05:46.251Z,22.40
2023-05-17T06:06:46.254Z,25.60
2023-05-17T06:07:46.114Z,25.80
2023-05-17T06:08:46.101Z,22.30
2023-05-17T06:09:46.103Z,23.60
2023-05-17T06:10:46.071Z,24.10
2023-05-17T06:11:46.068Z,27.40
2023-05-17T06:12:46.060Z,22.60
2023-05-17T06:13:46.045Z,23.60
2023-05-17T06:14:46.090Z,24.90
2023-05-17T06:15:46.030Z,23.10
2023-05-17T06:16:46.011Z,27.10
2023-05-17T06:17:46.098Z,26.10
2023-05-17T06:18:47.923Z,28.00
2023-05-17T06:19:46.016Z,24.70
2023-05-17T06:20:45.984Z,28.60
2023-05-17T06:21:45.993Z,23.70
2023-05-17T06:22:45.949Z,27.10
2023-05-17T06:23:46.030Z,28.40
2023-05-17T06:24:45.931Z,27.20
2023-05-17T06:25:45.913Z,24.80
2023-05-17T06:26:45.910Z,29.40
2023-05-17T06:27:45.893Z,27.50
2023-05-17T06:28:45.951Z,28.50
2023-05-17T06:29:45.934Z,25.40
2023-05-17T06:30:45.854Z,30.80
2023-05-17T06:31:45.849Z,27.70
2023-05-17T06:32:45.842Z,30.10
2023-05-17T06:33:45.888Z,31.60
2023-05-17T06:34:45.809Z,34.10
2023-05-17T06:35:55.330Z,32.30
2023-05-17T06:36:46.781Z,34.20
2023-05-17T06:37:45.798Z,34.80
2023-05-17T06:38:45.790Z,33.20
2023-05-17T06:39:55.477Z,31.20
2023-05-17T06:40:46.758Z,29.80
2023-05-17T06:41:45.740Z,30.30
2023-05-17T06:42:45.736Z,36.30
2023-05-17T06:43:45.726Z,33.30
2023-05-17T06:44:45.699Z,32.20
2023-05-17T06:45:45.763Z,38.80
2023-05-17T06:46:45.747Z,33.90
2023-05-17T06:47:45.765Z,35.60
2023-05-17T06:48:47.427Z,35.60
2023-05-17T06:49:45.714Z,38.70
2023-05-17T06:50:45.656Z,44.60
2023-05-17T06:51:45.680Z,46.10
2023-05-17T06:52:45.630Z,48.30
2023-05-17T06:53:45.611Z,48.30
2023-05-17T06:54:45.615Z,49.90
2023-05-17T06:55:45.593Z,49.60
2023-05-17T06:56:45.633Z,49.50
2023-05-17T06:57:45.585Z,47.20
2023-05-17T06:58:45.548Z,47.70
2023-05-17T06:59:49.472Z,47.40
2023-05-17T07:00:45.532Z,42.90
2023-05-17T07:01:45.521Z,50.50
2023-05-17T07:02:45.637Z,46.00
2023-05-17T07:03:45.671Z,47.70
2023-05-17T07:04:45.653Z,43.30
2023-05-17T07:05:45.484Z,46.40
2023-05-17T07:06:45.454Z,46.90
2023-05-17T07:07:45.453Z,42.40
2023-05-17T07:08:45.447Z,43.50
2023-05-17T07:09:45.444Z,41.90
2023-05-17T07:10:45.436Z,40.10
2023-05-17T07:11:45.416Z,41.00
2023-05-17T07:12:45.420Z,38.20
2023-05-17T07:13:46.781Z,32.90
2023-05-17T07:14:45.395Z,37.90
2023-05-17T07:15:45.432Z,35.20
2023-05-17T07:16:45.356Z,37.40
2023-05-17T07:17:45.443Z,34.70
2023-05-17T07:18:45.437Z,32.20
2023-05-17T07:19:46.382Z,33.70
2023-05-17T07:20:45.423Z,35.40
2023-05-17T07:21:45.344Z,30.50
2023-05-17T07:22:45.295Z,30.20
2023-05-17T07:23:45.281Z,24.40
2023-05-17T07:24:45.274Z,31.20
2023-05-17T07:25:45.265Z,28.90
2023-05-17T07:26:45.251Z,29.00
2023-05-17T07:27:45.238Z,27.30
2023-05-17T07:28:45.265Z,29.00
2023-05-17T07:29:45.225Z,30.70
2023-05-17T07:30:45.216Z,27.90
2023-05-17T07:31:45.198Z,30.20
2023-05-17T07:32:45.209Z,27.40
2023-05-17T07:33:45.219Z,28.00
2023-05-17T07:34:45.362Z,31.00
2023-05-17T07:35:45.157Z,29.40
2023-05-17T07:36:45.150Z,29.80
2023-05-17T07:37:45.129Z,25.90
2023-05-17T07:38:45.129Z,24.10
2023-05-17T07:39:45.125Z,21.10
2023-05-17T07:40:45.094Z,25.60
2023-05-17T07:41:45.088Z,23.60
2023-05-17T07:42:45.074Z,25.30
2023-05-17T07:43:45.083Z,27.70
2023-05-17T07:44:45.058Z,25.50
2023-05-17T07:45:45.043Z,19.80
2023-05-17T07:46:45.065Z,19.40
2023-05-17T07:47:45.102Z,18.00
2023-05-17T07:48:45.092Z,19.30
2023-05-17T07:49:45.007Z,16.90
2023-05-17T07:50:44.988Z,18.50
2023-05-17T07:51:44.993Z,21.70
2023-05-17T07:52:44.974Z,24.90
2023-05-17T07:53:44.954Z,19.40
2023-05-17T07:54:44.946Z,17.40
2023-05-17T07:55:47.069Z,18.60
2023-05-17T07:56:44.969Z,22.30
2023-05-17T07:57:44.924Z,19.40
2023-05-17T07:58:44.914Z,15.80
2023-05-17T07:59:44.946Z,21.10
2023-05-17T08:00:44.877Z,24.60
2023-05-17T08:01:44.888Z,17.60
2023-05-17T08:02:44.958Z,17.30
2023-05-17T08:03:44.849Z,18.60
2023-05-17T08:04:44.862Z,20.10
2023-05-17T08:05:44.990Z,19.80
2023-05-17T08:06:44.896Z,15.80
2023-05-17T08:07:44.822Z,16.30
2023-05-17T08:08:44.790Z,18.20
2023-05-17T08:09:44.781Z,18.90
2023-05-17T08:10:44.764Z,17.30
2023-05-17T08:11:44.788Z,16.60
2023-05-17T08:12:44.754Z,16.80
2023-05-17T08:13:44.741Z,15.00
2023-05-17T08:14:44.723Z,17.40
2023-05-17T08:15:44.750Z,15.90
2023-05-17T08:16:44.717Z,14.70
2023-05-17T08:17:45.001Z,17.50
2023-05-17T08:18:44.776Z,17.70
2023-05-17T08:19:44.863Z,19.00
2023-05-17T08:20:44.684Z,19.00
2023-05-17T08:21:44.655Z,21.10
2023-05-17T08:22:44.645Z,20.00
2023-05-17T08:23:45.582Z,16.10
2023-05-17T08:24:44.644Z,17.10
2023-05-17T08:25:44.625Z,15.20
2023-05-17T08:26:44.616Z,17.90
2023-05-17T08:27:44.691Z,14.50
2023-05-17T08:28:44.576Z,17.30
2023-05-17T08:29:44.594Z,21.40
2023-05-17T08:30:44.563Z,15.10
2023-05-17T08:31:44.551Z,20.30
2023-05-17T08:32:44.577Z,14.40
2023-05-17T08:33:44.659Z,15.20
2023-05-17T08:34:44.541Z,17.50
2023-05-17T08:35:44.495Z,13.30
2023-05-17T08:36:44.584Z,13.90
2023-05-17T08:37:44.477Z,14.70
2023-05-17T08:38:44.486Z,14.60
2023-05-17T08:39:44.523Z,11.80
2023-05-17T08:40:44.462Z,12.60
2023-05-17T08:41:44.432Z,13.70
2023-05-17T08:42:44.425Z,12.50
2023-05-17T08:43:44.437Z,16.30
2023-05-17T08:44:44.411Z,14.20
2023-05-17T08:45:44.390Z,12.40
2023-05-17T08:46:44.395Z,10.60
2023-05-17T08:47:44.408Z,9.40
2023-05-17T08:48:44.386Z,14.50
2023-05-17T08:49:46.406Z,9.80
2023-05-17T08:50:44.473Z,11.80
2023-05-17T08:51:44.317Z,8.00
2023-05-17T08:52:44.338Z,13.40
2023-05-17T08:53:44.352Z,10.70
2023-05-17T08:54:44.291Z,11.30
2023-05-17T08:55:44.281Z,8.10
2023-05-17T08:56:44.286Z,8.80
2023-05-17T08:57:44.254Z,9.50
2023-05-17T08:58:55.485Z,9.20
2023-05-17T08:59:45.251Z,11.70
2023-05-17T09:00:44.227Z,10.10
2023-05-17T09:01:44.215Z,11.00
2023-05-17T09:02:44.261Z,10.90
2023-05-17T09:03:44.247Z,8.90
2023-05-17T09:04:44.336Z,10.60
2023-05-17T09:05:44.193Z,9.70
2023-05-17T09:06:44.169Z,10.60
2023-05-17T09:07:44.178Z,10.80
2023-05-17T09:08:44.154Z,13.40
2023-05-17T09:09:44.123Z,10.80
2023-05-17T09:10:44.130Z,11.30
2023-05-17T09:11:44.122Z,9.80
2023-05-17T09:12:44.108Z,13.60
2023-05-17T09:13:44.087Z,10.30
2023-05-17T09:14:44.082Z,11.30
2023-05-17T09:15:44.062Z,12.20
2023-05-17T09:16:44.083Z,12.90
2023-05-17T09:17:44.130Z,10.00
2023-05-17T09:18:44.150Z,9.30
2023-05-17T09:19:44.062Z,8.20
2023-05-17T09:20:44.012Z,7.30
2023-05-17T09:21:44.002Z,9.00
2023-05-17T09:22:44.001Z,10.10
2023-05-17T09:23:51.427Z,9.70
2023-05-17T09:24:44.980Z,11.50
2023-05-17T09:25:43.959Z,9.80
2023-05-17T09:26:43.993Z,12.00
2023-05-17T09:27:43.933Z,10.00
2023-05-17T09:28:43.941Z,9.00
2023-05-17T09:29:43.912Z,10.10
2023-05-17T09:30:43.924Z,7.10
2023-05-17T09:31:43.890Z,9.70
2023-05-17T09:32:43.913Z,10.70
2023-05-17T09:33:43.922Z,11.20
2023-05-17T09:34:43.866Z,12.10
2023-05-17T09:35:43.930Z,8.80
2023-05-17T09:36:43.862Z,7.40
2023-05-17T09:37:43.901Z,10.30
2023-05-17T09:38:43.823Z,8.10
2023-05-17T09:39:43.823Z,9.60
2023-05-17T09:40:43.809Z,8.00
2023-05-17T09:41:43.796Z,10.30
2023-05-17T09:42:43.771Z,9.60
2023-05-17T09:43:43.780Z,10.30
2023-05-17T09:44:43.755Z,9.40
2023-05-17T09:45:43.749Z,8.70
2023-05-17T09:46:43.736Z,9.80
2023-05-17T09:47:43.754Z,8.40
2023-05-17T09:48:43.770Z,9.90
2023-05-17T09:49:43.712Z,9.70
2023-05-17T09:50:43.697Z,9.70
2023-05-17T09:51:43.689Z,11.40
2023-05-17T09:52:43.670Z,9.70
2023-05-17T09:53:43.672Z,9.00
2023-05-17T09:54:43.654Z,10.50
2023-05-17T09:55:43.636Z,10.30
2023-05-17T09:56:43.631Z,11.30
2023-05-17T09:57:43.618Z,10.20
2023-05-17T09:58:43.669Z,10.20
2023-05-17T09:59:43.608Z,10.20
2023-05-17T10:00:43.603Z,12.00
2023-05-17T10:01:43.622Z,11.00
2023-05-17T10:02:43.769Z,11.40
2023-05-17T10:03:43.589Z,10.30
2023-05-17T10:04:43.594Z,12.00
2023-05-17T10:05:43.539Z,10.80
2023-05-17T10:06:48.033Z,7.70
2023-05-17T10:07:44.528Z,7.00
2023-05-17T10:08:43.520Z,11.70
2023-05-17T10:09:43.492Z,16.60
2023-05-17T10:10:43.502Z,11.20
2023-05-17T10:11:43.487Z,11.00
2023-05-17T10:12:43.462Z,10.60
2023-05-17T10:13:43.451Z,8.20
2023-05-17T10:14:43.487Z,8.90
2023-05-17T10:15:43.436Z,9.90
2023-05-17T10:16:43.423Z,11.80
2023-05-17T10:17:45.408Z,9.90
2023-05-17T10:18:43.569Z,9.30
2023-05-17T10:19:43.692Z,9.00
2023-05-17T10:20:43.391Z,11.00
2023-05-17T10:21:43.366Z,9.20
2023-05-17T10:22:43.462Z,11.30
2023-05-17T10:23:43.362Z,11.60
2023-05-17T10:24:43.327Z,5.60
2023-05-17T10:25:43.332Z,9.10
2023-05-17T10:26:43.342Z,10.00
2023-05-17T10:27:43.301Z,12.70
2023-05-17T10:28:43.290Z,9.40
2023-05-17T10:29:43.290Z,9.00
2023-05-17T10:30:43.267Z,8.80
2023-05-17T10:31:43.284Z,10.60
2023-05-17T10:32:43.337Z,9.20
2023-05-17T10:33:43.371Z,10.40
2023-05-17T10:34:43.546Z,11.40
2023-05-17T10:35:43.233Z,9.30
2023-05-17T10:36:43.222Z,10.90
2023-05-17T10:37:43.202Z,8.10
2023-05-17T10:38:43.342Z,8.40
2023-05-17T10:39:43.177Z,9.00
2023-05-17T10:40:43.174Z,8.50
2023-05-17T10:41:43.174Z,7.90
2023-05-17T10:42:43.140Z,10.10
2023-05-17T10:43:43.144Z,9.20
2023-05-17T10:44:43.128Z,10.90
2023-05-17T10:45:43.127Z,11.20
2023-05-17T10:46:43.111Z,11.10
2023-05-17T10:47:43.204Z,10.10
2023-05-17T10:48:43.110Z,10.30
2023-05-17T10:49:43.074Z,11.80
2023-05-17T10:50:50.598Z,16.40
2023-05-17T10:51:44.050Z,10.10
2023-05-17T10:52:43.042Z,8.80
2023-05-17T10:53:43.030Z,6.90
2023-05-17T10:54:43.023Z,9.90
2023-05-17T10:55:43.060Z,8.10
2023-05-17T10:56:42.999Z,12.60
2023-05-17T10:57:51.037Z,10.10
2023-05-17T10:58:43.967Z,13.20
2023-05-17T10:59:43.007Z,9.20
2023-05-17T11:00:42.937Z,8.90
2023-05-17T11:01:42.961Z,9.80
2023-05-17T11:02:42.984Z,8.50
2023-05-17T11:03:42.921Z,9.70
2023-05-17T11:04:43.051Z,9.50
2023-05-17T11:05:42.936Z,9.00
2023-05-17T11:06:42.952Z,9.10
2023-05-17T11:07:42.891Z,10.20
2023-05-17T11:08:42.874Z,9.80
2023-05-17T11:09:42.879Z,11.20
2023-05-17T11:10:42.850Z,10.50
2023-05-17T11:11:42.852Z,8.60
2023-05-17T11:12:42.822Z,11.60
2023-05-17T11:13:42.876Z,10.70
2023-05-17T11:14:42.816Z,9.20
2023-05-17T11:15:42.823Z,9.40
2023-05-17T11:16:42.801Z,9.40
2023-05-17T11:17:42.822Z,12.30
2023-05-17T11:18:43.018Z,7.70
2023-05-17T11:19:42.883Z,8.70
2023-05-17T11:20:42.918Z,10.70
2023-05-17T11:21:42.755Z,8.80
2023-05-17T11:22:42.744Z,10.30
2023-05-17T11:23:42.728Z,8.60
2023-05-17T11:24:42.697Z,7.90
2023-05-17T11:25:42.702Z,8.20
2023-05-17T11:26:42.692Z,10.60
2023-05-17T11:27:42.689Z,8.50
2023-05-17T11:28:42.685Z,8.10
2023-05-17T11:29:42.655Z,8.10
2023-05-17T11:30:42.702Z,10.60
2023-05-17T11:31:42.634Z,12.30
2023-05-17T11:32:42.790Z,9.80
2023-05-17T11:33:42.694Z,9.70
2023-05-17T11:34:42.695Z,8.10
2023-05-17T11:35:42.593Z,11.90
2023-05-17T11:36:42.592Z,9.00
2023-05-17T11:37:42.584Z,9.90
2023-05-17T11:38:42.603Z,11.00
2023-05-17T11:39:42.548Z,8.30
2023-05-17T11:40:42.567Z,10.60
2023-05-17T11:41:42.548Z,7.50
2023-05-17T11:42:42.525Z,11.60
2023-05-17T11:43:42.523Z,9.60
2023-05-17T11:44:42.509Z,9.70
2023-05-17T11:45:42.497Z,10.20
2023-05-17T11:46:42.500Z,9.80
2023-05-17T11:47:42.525Z,9.10
2023-05-17T11:48:42.509Z,7.40
2023-05-17T11:49:42.452Z,10.60
2023-05-17T11:50:42.460Z,10.40
2023-05-17T11:51:42.443Z,6.30
2023-05-17T11:52:42.434Z,8.20
2023-05-17T11:53:42.418Z,11.10
2023-05-17T11:54:42.422Z,9.30
2023-05-17T11:55:42.400Z,8.70
2023-05-17T11:56:43.455Z,7.90
2023-05-17T11:57:42.376Z,10.30
2023-05-17T11:58:42.364Z,9.60
2023-05-17T11:59:42.379Z,9.50
2023-05-17T12:00:42.366Z,8.10
2023-05-17T12:01:42.342Z,8.10
2023-05-17T12:02:42.346Z,8.90
2023-05-17T12:03:42.323Z,13.20
2023-05-17T12:04:42.321Z,9.60
2023-05-17T12:05:42.287Z,7.40
2023-05-17T12:06:42.331Z,7.90
2023-05-17T12:07:42.288Z,8.90
2023-05-17T12:08:42.266Z,8.70
2023-05-17T12:09:42.249Z,9.50
2023-05-17T12:10:42.255Z,9.30
2023-05-17T12:11:42.233Z,7.80
2023-05-17T12:12:42.238Z,8.40
2023-05-17T12:13:42.212Z,9.40
2023-05-17T12:14:42.226Z,8.20
2023-05-17T12:15:42.202Z,11.40
2023-05-17T12:16:42.190Z,8.80
2023-05-17T12:17:42.251Z,8.70
2023-05-17T12:18:42.372Z,9.40
2023-05-17T12:19:42.506Z,10.40
2023-05-17T12:20:42.161Z,8.80
2023-05-17T12:21:42.117Z,9.40
2023-05-17T12:22:42.131Z,10.40
2023-05-17T12:23:42.108Z,10.90
2023-05-17T12:24:42.286Z,9.30
2023-05-17T12:25:42.083Z,11.90
2023-05-17T12:26:42.082Z,10.00
2023-05-17T12:27:42.070Z,6.80
2023-05-17T12:28:42.068Z,5.80
2023-05-17T12:29:42.099Z,9.60
2023-05-17T12:30:42.033Z,10.10
2023-05-17T12:31:42.049Z,12.40
2023-05-17T12:32:42.154Z,11.90
2023-05-17T12:33:42.147Z,11.10
2023-05-17T12:34:41.999Z,8.30
2023-05-17T12:35:41.998Z,9.20
2023-05-17T12:36:41.968Z,8.60
2023-05-17T12:37:41.955Z,8.50
2023-05-17T12:38:41.979Z,9.20
2023-05-17T12:39:41.936Z,6.90
2023-05-17T12:40:43.448Z,9.10
2023-05-17T12:41:41.928Z,8.50
2023-05-17T12:42:41.997Z,10.80
2023-05-17T12:43:41.902Z,9.50
2023-05-17T12:44:41.888Z,9.40
2023-05-17T12:45:41.871Z,12.80
2023-05-17T12:46:41.862Z,8.80
2023-05-17T12:47:41.874Z,8.40
2023-05-17T12:48:41.890Z,7.40
2023-05-17T12:49:41.832Z,8.60
2023-05-17T12:50:41.826Z,9.30
2023-05-17T12:51:41.822Z,10.90
2023-05-17T12:52:41.841Z,11.20
2023-05-17T12:53:41.793Z,8.90
2023-05-17T12:54:41.792Z,8.70
2023-05-17T12:55:41.774Z,10.80
2023-05-17T12:56:41.798Z,10.80
2023-05-17T12:57:41.769Z,8.60
2023-05-17T12:58:41.751Z,8.10
2023-05-17T12:59:41.837Z,9.80
2023-05-17T13:00:41.713Z,11.70
2023-05-17T13:01:41.716Z,8.70
2023-05-17T13:02:43.668Z,10.60
2023-05-17T13:03:42.105Z,11.00
2023-05-17T13:04:41.688Z,10.20
2023-05-17T13:05:41.686Z,9.30
2023-05-17T13:06:41.662Z,12.20
2023-05-17T13:07:41.688Z,11.00
2023-05-17T13:08:44.038Z,8.90
2023-05-17T13:09:41.624Z,5.70
2023-05-17T13:10:41.627Z,8.80
2023-05-17T13:11:41.629Z,10.10
2023-05-17T13:12:41.624Z,11.80
2023-05-17T13:13:41.624Z,10.20
2023-05-17T13:14:45.198Z,7.50
2023-05-17T13:15:41.581Z,9.70
2023-05-17T13:16:41.654Z,8.10
2023-05-17T13:17:41.567Z,12.50
2023-05-17T13:18:41.674Z,11.20
2023-05-17T13:19:41.795Z,9.70
2023-05-17T13:20:41.615Z,8.80
2023-05-17T13:21:41.537Z,11.00
2023-05-17T13:22:41.510Z,11.00
2023-05-17T13:23:41.493Z,9.50
2023-05-17T13:24:41.493Z,13.10
2023-05-17T13:25:41.572Z,11.30
2023-05-17T13:26:41.485Z,12.80
2023-05-17T13:27:41.447Z,9.20
2023-05-17T13:28:41.443Z,10.00
2023-05-17T13:29:41.501Z,9.90
2023-05-17T13:30:41.425Z,9.30
2023-05-17T13:31:41.452Z,7.20
2023-05-17T13:32:41.551Z,13.40
2023-05-17T13:33:41.485Z,11.00
2023-05-17T13:34:41.470Z,8.00
2023-05-17T13:35:41.367Z,6.70
2023-05-17T13:36:41.360Z,10.00
2023-05-17T13:37:41.355Z,7.70
2023-05-17T13:38:41.358Z,11.50
2023-05-17T13:39:41.668Z,8.70
2023-05-17T13:40:41.322Z,7.50
2023-05-17T13:41:41.309Z,12.40
2023-05-17T13:42:41.294Z,9.00
2023-05-17T13:43:41.303Z,8.10
2023-05-17T13:44:41.289Z,6.80
2023-05-17T13:45:41.274Z,9.00
2023-05-17T13:46:41.257Z,9.20
2023-05-17T13:47:41.318Z,9.90
2023-05-17T13:48:42.808Z,9.30
2023-05-17T13:49:41.247Z,7.70
2023-05-17T13:50:41.213Z,10.00
2023-05-17T13:51:41.225Z,7.50
2023-05-17T13:52:41.248Z,10.20
2023-05-17T13:53:41.218Z,9.10
2023-05-17T13:54:41.249Z,9.10
2023-05-17T13:55:41.155Z,10.10
2023-05-17T13:56:41.230Z,10.10
2023-05-17T13:57:41.205Z,7.60
2023-05-17T13:58:41.236Z,7.50
2023-05-17T13:59:41.132Z,9.00
2023-05-17T14:00:41.157Z,7.90
2023-05-17T14:01:41.112Z,10.60
2023-05-17T14:02:41.210Z,7.50
2023-05-17T14:03:41.112Z,7.00
2023-05-17T14:04:41.118Z,6.90
2023-05-17T14:05:41.096Z,7.60
2023-05-17T14:06:41.056Z,7.50
2023-05-17T14:07:41.062Z,9.00
2023-05-17T14:08:41.021Z,10.40
2023-05-17T14:09:41.023Z,6.40
2023-05-17T14:10:41.011Z,8.40
2023-05-17T14:11:41.065Z,9.40
2023-05-17T14:12:40.989Z,9.60
2023-05-17T14:13:40.981Z,5.80
2023-05-17T14:14:40.963Z,10.10
2023-05-17T14:15:40.965Z,8.30
2023-05-17T14:16:40.959Z,8.10
2023-05-17T14:17:41.011Z,7.50
2023-05-17T14:18:41.147Z,6.80
2023-05-17T14:19:41.096Z,10.90
2023-05-17T14:20:40.917Z,9.50
2023-05-17T14:21:40.881Z,6.70
2023-05-17T14:22:40.888Z,7.70
2023-05-17T14:23:40.875Z,7.90
2023-05-17T14:24:40.851Z,9.00
2023-05-17T14:25:40.855Z,8.40
2023-05-17T14:26:40.833Z,8.40
2023-05-17T14:27:40.844Z,10.60
2023-05-17T14:28:40.879Z,7.70
2023-05-17T14:29:40.808Z,9.40
2023-05-17T14:30:40.793Z,8.90
2023-05-17T14:31:40.801Z,7.80
2023-05-17T14:32:40.848Z,7.10
2023-05-17T14:33:40.797Z,7.50
2023-05-17T14:34:40.795Z,13.00
2023-05-17T14:35:40.743Z,7.50
2023-05-17T14:36:40.740Z,9.20
2023-05-17T14:37:40.720Z,6.10
2023-05-17T14:38:40.728Z,10.90
2023-05-17T14:39:40.696Z,10.20
2023-05-17T14:40:40.708Z,8.70
2023-05-17T14:41:41.554Z,8.30
2023-05-17T14:42:40.672Z,8.80
2023-05-17T14:43:40.651Z,8.60
2023-05-17T14:44:40.664Z,8.80
2023-05-17T14:45:40.623Z,11.50
2023-05-17T14:46:40.660Z,12.40
2023-05-17T14:47:40.630Z,7.50
2023-05-17T14:48:40.644Z,8.50
2023-05-17T14:49:40.605Z,5.50
2023-05-17T14:50:40.591Z,10.50
2023-05-17T14:51:40.579Z,9.80
2023-05-17T14:52:40.577Z,6.90
2023-05-17T14:53:40.565Z,7.70
2023-05-17T14:54:40.559Z,7.20
2023-05-17T14:55:40.537Z,8.50
2023-05-17T14:56:40.525Z,9.30
2023-05-17T14:57:40.503Z,6.80
2023-05-17T14:58:40.597Z,5.90
2023-05-17T14:59:40.734Z,8.50
2023-05-17T15:00:40.467Z,8.00
2023-05-17T15:01:40.497Z,8.10
2023-05-17T15:02:40.484Z,7.90
2023-05-17T15:03:40.518Z,7.10
2023-05-17T15:04:40.556Z,9.30
2023-05-17T15:05:40.410Z,7.40
2023-05-17T15:06:40.410Z,7.60
2023-05-17T15:07:40.424Z,5.60
2023-05-17T15:08:40.395Z,8.30
2023-05-17T15:09:40.372Z,8.60
2023-05-17T15:10:40.376Z,8.50
2023-05-17T15:11:40.374Z,8.50
2023-05-17T15:12:40.366Z,9.20
2023-05-17T15:13:40.333Z,9.40
2023-05-17T15:14:40.357Z,5.70
2023-05-17T15:15:40.320Z,7.90
2023-05-17T15:16:40.342Z,6.50
2023-05-17T15:17:40.393Z,7.20
2023-05-17T15:18:40.321Z,9.10
2023-05-17T15:19:40.377Z,8.10
2023-05-17T15:20:40.268Z,7.10
2023-05-17T15:21:40.244Z,6.90
2023-05-17T15:22:40.262Z,9.00
2023-05-17T15:23:40.234Z,6.50
2023-05-17T15:24:40.227Z,8.60
2023-05-17T15:25:40.206Z,10.40
2023-05-17T15:26:40.214Z,8.20
2023-05-17T15:27:40.183Z,7.30
2023-05-17T15:28:40.188Z,7.50
2023-05-17T15:29:40.162Z,7.70
2023-05-17T15:30:40.185Z,6.90
2023-05-17T15:31:40.152Z,7.00
2023-05-17T15:32:40.334Z,7.80
2023-05-17T15:33:40.135Z,9.50
2023-05-17T15:34:40.118Z,6.60
2023-05-17T15:35:40.117Z,9.20
2023-05-17T15:36:40.098Z,5.60
2023-05-17T15:37:40.093Z,9.00
2023-05-17T15:38:40.097Z,6.40
2023-05-17T15:39:40.055Z,10.20
2023-05-17T15:40:40.291Z,8.10
2023-05-17T15:41:40.069Z,7.00
2023-05-17T15:42:40.092Z,5.90
2023-05-17T15:43:40.049Z,8.50
2023-05-17T15:44:40.068Z,6.50
2023-05-17T15:45:39.996Z,6.40
2023-05-17T15:46:39.994Z,8.90
2023-05-17T15:47:43.515Z,7.30
2023-05-17T15:48:40.027Z,8.20
2023-05-17T15:49:39.997Z,6.90
2023-05-17T15:50:39.952Z,8.00
2023-05-17T15:51:39.933Z,10.60
2023-05-17T15:52:39.928Z,7.70
2023-05-17T15:53:39.908Z,8.50
2023-05-17T15:54:39.897Z,6.60
2023-05-17T15:55:39.886Z,5.60
2023-05-17T15:56:39.881Z,7.40
2023-05-17T15:57:39.854Z,6.10
2023-05-17T15:58:39.868Z,7.20
2023-05-17T15:59:39.851Z,9.60
2023-05-17T16:00:39.840Z,8.20
2023-05-17T16:01:39.822Z,9.60
2023-05-17T16:02:39.997Z,8.00
2023-05-17T16:03:39.843Z,5.70
2023-05-17T16:04:39.853Z,8.30
2023-05-17T16:05:39.780Z,6.80
2023-05-17T16:06:39.818Z,7.70
2023-05-17T16:07:39.765Z,9.50
2023-05-17T16:08:39.759Z,6.90
2023-05-17T16:09:39.731Z,8.60
2023-05-17T16:10:39.718Z,13.00
2023-05-17T16:11:39.711Z,8.10
2023-05-17T16:12:39.745Z,7.90
2023-05-17T16:13:39.687Z,8.30
2023-05-17T16:14:39.689Z,6.80
2023-05-17T16:15:39.721Z,8.10
2023-05-17T16:16:39.656Z,10.80
2023-05-17T16:17:39.717Z,10.40
2023-05-17T16:18:39.843Z,8.80
2023-05-17T16:19:39.688Z,8.00
2023-05-17T16:20:39.633Z,6.20
2023-05-17T16:21:39.602Z,8.60
2023-05-17T16:22:39.614Z,6.20
2023-05-17T16:23:39.575Z,7.00
2023-05-17T16:24:39.572Z,10.20
2023-05-17T16:25:39.576Z,10.40
2023-05-17T16:26:39.589Z,7.00
2023-05-17T16:27:39.554Z,7.00
2023-05-17T16:28:39.556Z,9.00
2023-05-17T16:29:39.595Z,8.60
2023-05-17T16:30:39.521Z,7.90
2023-05-17T16:31:39.502Z,8.40
2023-05-17T16:32:39.781Z,10.70
2023-05-17T16:33:39.506Z,10.10
2023-05-17T16:34:39.491Z,9.20
2023-05-17T16:35:39.462Z,8.30
2023-05-17T16:36:39.452Z,9.10
2023-05-17T16:37:39.431Z,11.00
2023-05-17T16:38:39.427Z,6.20
2023-05-17T16:39:39.408Z,6.80
2023-05-17T16:40:39.408Z,7.50
2023-05-17T16:41:39.418Z,8.30
2023-05-17T16:42:39.385Z,7.50
2023-05-17T16:43:39.369Z,8.80
2023-05-17T16:44:39.360Z,10.50
2023-05-17T16:45:39.393Z,7.50
2023-05-17T16:46:39.412Z,8.50
2023-05-17T16:47:39.396Z,10.30
2023-05-17T16:48:39.350Z,9.10
2023-05-17T16:49:39.297Z,7.70
2023-05-17T16:50:39.304Z,10.20
2023-05-17T16:51:39.278Z,8.10
2023-05-17T16:52:39.280Z,8.80
2023-05-17T16:53:39.269Z,8.40
2023-05-17T16:54:39.311Z,6.80
2023-05-17T16:55:39.251Z,9.10
2023-05-17T16:56:39.229Z,6.90
2023-05-17T16:57:39.201Z,9.50
2023-05-17T16:58:39.205Z,11.00
2023-05-17T16:59:39.203Z,8.00
2023-05-17T17:00:39.180Z,9.50
2023-05-17T17:01:39.179Z,9.40
2023-05-17T17:02:39.199Z,6.60
2023-05-17T17:03:39.302Z,9.90
2023-05-17T17:04:39.155Z,9.40
2023-05-17T17:05:39.121Z,9.40
2023-05-17T17:06:39.119Z,7.50
2023-05-17T17:07:39.106Z,7.30
2023-05-17T17:08:39.101Z,8.30
2023-05-17T17:09:39.098Z,7.50
2023-05-17T17:10:39.069Z,8.50
2023-05-17T17:11:39.053Z,7.50
2023-05-17T17:12:39.045Z,7.60
2023-05-17T17:13:39.041Z,8.50
2023-05-17T17:14:39.027Z,8.40
2023-05-17T17:15:39.028Z,6.50
2023-05-17T17:16:39.127Z,8.00
2023-05-17T17:17:39.054Z,6.60
2023-05-17T17:18:39.024Z,5.50
2023-05-17T17:19:38.983Z,6.30
2023-05-17T17:20:38.972Z,8.40
2023-05-17T17:21:38.962Z,7.10
2023-05-17T17:22:38.947Z,8.30
2023-05-17T17:23:38.943Z,6.60
2023-05-17T17:24:38.918Z,11.00
2023-05-17T17:25:38.914Z,6.10
2023-05-17T17:26:38.897Z,5.80
2023-05-17T17:27:38.896Z,8.80
2023-05-17T17:28:38.902Z,7.30
2023-05-17T17:29:38.870Z,9.20
2023-05-17T17:30:38.851Z,7.70
2023-05-17T17:31:38.843Z,7.40
2023-05-17T17:32:38.974Z,9.60
2023-05-17T17:33:39.031Z,8.50
2023-05-17T17:34:38.813Z,10.10
2023-05-17T17:35:38.876Z,6.60
2023-05-17T17:36:38.802Z,10.60
2023-05-17T17:37:38.904Z,9.70
2023-05-17T17:38:38.796Z,8.40
2023-05-17T17:39:38.760Z,7.40